Time;durP1;ratioP1;P1;durP2;ratioP2;P2;SDS_P1;SDS_P2;PMS_P1;PMS_P2;Temp;Humidity;BMP_temperature;BMP_pressure;BME280_temperature;BME280_humidity;BME280_pressure;Samples;Min_cycle;Max_cycle;Signal;HPM_P1;HPM_P2
2022/06/01 00:02:20;;;;;;;1.7;1.6;;;;;;;;;;;;;
2022/06/01 00:04:46;;;;;;;2.7;1.7;;;;;;;;;;;;;
2022/06/01 00:07:11;;;;;;;1.7;1.6;;;;;;;;;;;;;
2022/06/01 00:09:40;;;;;;;1.9;1.8;;;;;;;;;;;;;
2022/06/01 00:12:05;;;;;;;3;2;;;;;;;;;;;;;
2022/06/01 00:14:30;;;;;;;1.8;1.7;;;;;;;;;;;;;
2022/06/01 00:16:57;;;;;;;1.8;1.7;;;;;;;;;;;;;
2022/06/01 00:19:22;;;;;;;1.8;1.6;;;;;;;;;;;;;
2022/06/01 00:24:12;;;;;;;2;1.8;;;;;;;;;;;;;
2022/06/01 00:26:37;;;;;;;1.8;1.7;;;;;;;;;;;;;
2022/06/01 00:29:02;;;;;;;2.6;1.6;;;;;;;;;;;;;
2022/06/01 00:31:28;;;;;;;1.8;1.5;;;;;;;;;;;;;
2022/06/01 00:33:53;;;;;;;1.6;1.5;;;;;;;;;;;;;
2022/06/01 00:36:18;;;;;;;1.9;1.4;;;;;;;;;;;;;
2022/06/01 00:38:43;;;;;;;1.8;1.7;;;;;;;;;;;;;
2022/06/01 00:41:08;;;;;;;1.7;1.6;;;;;;;;;;;;;
2022/06/01 00:43:35;;;;;;;3.5;1.9;;;;;;;;;;;;;
2022/06/01 00:46:00;;;;;;;1.6;1.5;;;;;;;;;;;;;
2022/06/01 00:48:28;;;;;;;2;1.5;;;;;;;;;;;;;
2022/06/01 00:50:53;;;;;;;1.6;1.5;;;;;;;;;;;;;
2022/06/01 00:53:18;;;;;;;1.5;1.4;;;;;;;;;;;;;
2022/06/01 00:55:43;;;;;;;1.7;1.5;;;;;;;;;;;;;
2022/06/01 00:58:20;;;;;;;1.8;1.7;;;;;;;;;;;;;
2022/06/01 01:00:45;;;;;;;1.9;1.7;;;;;;;;;;;;;
2022/06/01 01:03:11;;;;;;;3.5;2.5;;;;;;;;;;;;;
2022/06/01 01:05:35;;;;;;;3;2.5;;;;;;;;;;;;;
2022/06/01 01:08:02;;;;;;;2.5;2.2;;;;;;;;;;;;;
2022/06/01 01:10:31;;;;;;;2;1.9;;;;;;;;;;;;;
2022/06/01 01:13:01;;;;;;;2.3;2.1;;;;;;;;;;;;;
2022/06/01 01:15:21;;;;;;;2.2;2;;;;;;;;;;;;;
2022/06/01 01:17:48;;;;;;;2.1;1.9;;;;;;;;;;;;;
2022/06/01 01:20:13;;;;;;;3.6;1.9;;;;;;;;;;;;;
2022/06/01 01:22:38;;;;;;;2.6;1.8;;;;;;;;;;;;;
2022/06/01 01:25:04;;;;;;;4.8;1.8;;;;;;;;;;;;;
2022/06/01 01:27:31;;;;;;;1.4;1.3;;;;;;;;;;;;;
2022/06/01 01:29:56;;;;;;;1.8;1.7;;;;;;;;;;;;;
2022/06/01 01:32:22;;;;;;;2.2;1.9;;;;;;;;;;;;;
2022/06/01 01:34:47;;;;;;;2.3;2;;;;;;;;;;;;;
2022/06/01 01:37:13;;;;;;;2.4;2.1;;;;;;;;;;;;;
2022/06/01 01:39:37;;;;;;;2;1.8;;;;;;;;;;;;;
2022/06/01 01:42:03;;;;;;;2.7;1.8;;;;;;;;;;;;;
2022/06/01 01:44:28;;;;;;;2.9;1.8;;;;;;;;;;;;;
2022/06/01 01:46:53;;;;;;;2.8;1.7;;;;;;;;;;;;;
2022/06/01 01:49:19;;;;;;;1.7;1.6;;;;;;;;;;;;;
2022/06/01 01:51:44;;;;;;;2.4;2.2;;;;;;;;;;;;;
2022/06/01 01:54:09;;;;;;;2.2;1.9;;;;;;;;;;;;;
2022/06/01 01:56:36;;;;;;;2;1.9;;;;;;;;;;;;;
2022/06/01 01:58:59;;;;;;;2;1.8;;;;;;;;;;;;;
2022/06/01 02:01:33;;;;;;;1.9;1.8;;;;;;;;;;;;;
2022/06/01 02:03:58;;;;;;;2.5;2.1;;;;;;;;;;;;;
2022/06/01 02:06:24;;;;;;;2.4;1.9;;;;;;;;;;;;;
2022/06/01 02:08:50;;;;;;;2.4;1.9;;;;;;;;;;;;;
2022/06/01 02:13:40;;;;;;;2.8;2;;;;;;;;;;;;;
2022/06/01 02:16:06;;;;;;;2.3;1.9;;;;;;;;;;;;;
2022/06/01 02:18:31;;;;;;;3.3;2.1;;;;;;;;;;;;;
2022/06/01 02:20:59;;;;;;;1.6;1.5;;;;;;;;;;;;;
2022/06/01 02:23:24;;;;;;;2.1;1.5;;;;;;;;;;;;;
2022/06/01 02:25:52;;;;;;;2.5;2;;;;;;;;;;;;;
2022/06/01 02:28:14;;;;;;;2.3;1.9;;;;;;;;;;;;;
2022/06/01 02:30:39;;;;;;;1.9;1.3;;;;;;;;;;;;;
2022/06/01 02:33:04;;;;;;;2.3;1.6;;;;;;;;;;;;;
2022/06/01 02:35:29;;;;;;;1.4;1.3;;;;;;;;;;;;;
2022/06/01 02:37:55;;;;;;;1.5;1.4;;;;;;;;;;;;;
2022/06/01 02:40:20;;;;;;;4.3;1.6;;;;;;;;;;;;;
2022/06/01 02:42:45;;;;;;;1.6;1.5;;;;;;;;;;;;;
2022/06/01 02:45:10;;;;;;;3.1;1.7;;;;;;;;;;;;;
2022/06/01 02:47:35;;;;;;;1.8;1.7;;;;;;;;;;;;;
2022/06/01 02:50:00;;;;;;;1.5;1.4;;;;;;;;;;;;;
2022/06/01 02:52:25;;;;;;;1.9;1.7;;;;;;;;;;;;;
2022/06/01 02:54:51;;;;;;;1.8;1.7;;;;;;;;;;;;;
2022/06/01 02:57:17;;;;;;;1.8;1.7;;;;;;;;;;;;;
2022/06/01 02:59:42;;;;;;;2.3;1.6;;;;;;;;;;;;;
2022/06/01 03:02:09;;;;;;;1.8;1.7;;;;;;;;;;;;;
2022/06/01 03:04:32;;;;;;;1.5;1.4;;;;;;;;;;;;;
2022/06/01 03:06:58;;;;;;;1.6;1.2;;;;;;;;;;;;;
2022/06/01 03:09:23;;;;;;;3.9;1.3;;;;;;;;;;;;;
2022/06/01 03:11:48;;;;;;;1.6;1.5;;;;;;;;;;;;;
2022/06/01 03:14:13;;;;;;;1.6;1.4;;;;;;;;;;;;;
2022/06/01 03:16:41;;;;;;;1.9;1.4;;;;;;;;;;;;;
2022/06/01 03:19:07;;;;;;;3.4;1.8;;;;;;;;;;;;;
2022/06/01 03:21:32;;;;;;;2.1;1.6;;;;;;;;;;;;;
2022/06/01 03:23:57;;;;;;;1.6;1.5;;;;;;;;;;;;;
2022/06/01 03:26:24;;;;;;;1.5;1.4;;;;;;;;;;;;;
2022/06/01 03:28:49;;;;;;;1.5;1.4;;;;;;;;;;;;;
2022/06/01 03:31:15;;;;;;;1.9;1.6;;;;;;;;;;;;;
2022/06/01 03:33:40;;;;;;;2;1.9;;;;;;;;;;;;;
2022/06/01 03:36:06;;;;;;;1.7;1.6;;;;;;;;;;;;;
2022/06/01 03:38:31;;;;;;;1.5;1.4;;;;;;;;;;;;;
2022/06/01 03:40:57;;;;;;;2.3;1.5;;;;;;;;;;;;;
2022/06/01 03:43:22;;;;;;;1.5;1.4;;;;;;;;;;;;;
2022/06/01 03:45:59;;;;;;;1.6;1.5;;;;;;;;;;;;;
2022/06/01 03:48:14;;;;;;;1.6;1.5;;;;;;;;;;;;;
2022/06/01 03:50:39;;;;;;;1.6;1.5;;;;;;;;;;;;;
2022/06/01 03:53:05;;;;;;;7;1.6;;;;;;;;;;;;;
2022/06/01 03:55:31;;;;;;;1.1;1.1;;;;;;;;;;;;;
2022/06/01 03:57:56;;;;;;;1.2;1.1;;;;;;;;;;;;;
2022/06/01 04:02:38;;;;;;;1.3;1.2;;;;;;;11.21;96.38965;937.7221;;;;
2022/06/01 04:08:26;;;;;;;1.3;1.2;;;;;;;11.5;96.19043;937.741;;;;
2022/06/01 04:10:58;;;;;;;1.5;1.4;;;;;;;11.53;95.61328;937.7946;;;;
2022/06/01 04:13:27;;;;;;;1.4;1.3;;;;;;;11.63;95.23438;937.7985;;;;
2022/06/01 04:15:52;;;;;;;1.4;1.2;;;;;;;11.69;94.98438;937.786;;;;
2022/06/01 04:18:17;;;;;;;2.3;1.4;;;;;;;11.71;94.54199;937.8467;;;;
2022/06/01 04:20:45;;;;;;;1.5;1.4;;;;;;;11.77;94.24707;937.8247;;;;
2022/06/01 04:23:11;;;;;;;1.5;1.4;;;;;;;11.87;94.00488;937.8279;;;;
2022/06/01 04:25:39;;;;;;;1.4;1.3;;;;;;;11.86;94.08301;937.9086;;;;
2022/06/01 04:28:10;;;;;;;1.4;1.3;;;;;;;12.02;93.5;937.8281;;;;
2022/06/01 04:36:28;;;;;;;1.3;1.2;;;;;;;12.09;91.71484;937.8881;;;;
2022/06/01 04:38:57;;;;;;;1.3;1.2;;;;;;;12.03;92.94043;937.9142;;;;
2022/06/01 04:43:53;;;;;;;1;1;;;;;;;12.1;92.93066;937.8378;;;;
2022/06/01 04:46:24;;;;;;;2.8;1.2;;;;;;;12.17;93.2334;937.7629;;;;
2022/06/01 04:48:55;;;;;;;1.3;1.1;;;;;;;12.16;93.54004;937.7965;;;;
2022/06/01 04:51:20;;;;;;;1.2;1.1;;;;;;;12.32;93.12793;937.7587;;;;
2022/06/01 04:53:48;;;;;;;1.2;1.1;;;;;;;12.41;92.63184;937.8141;;;;
2022/06/01 04:56:13;;;;;;;1.2;1.1;;;;;;;12.46;92.46973;937.7992;;;;
2022/06/01 04:58:42;;;;;;;1.4;1.2;;;;;;;12.53;91.91113;937.7554;;;;
2022/06/01 05:01:14;;;;;;;1.9;1;;;;;;;12.6;91.43359;937.7107;;;;
2022/06/01 05:03:39;;;;;;;1.6;1.5;;;;;;;12.84;93.6543;937.7489;;;;
2022/06/01 05:06:10;;;;;;;1.6;1;;;;;;;14.04;88.59277;937.7528;;;;
2022/06/01 05:08:40;;;;;;;0.9;0.8;;;;;;;15.2;81.68555;937.6462;;;;
2022/06/01 05:11:09;;;;;;;0.7;0.7;;;;;;;16.62;73.27832;937.581;;;;
2022/06/01 05:13:34;;;;;;;0.7;0.7;;;;;;;17.15;70.51563;937.6089;;;;
2022/06/01 05:15:59;;;;;;;1.2;0.7;;;;;;;17.36;69.27344;937.7222;;;;
2022/06/01 05:18:29;;;;;;;0.7;0.7;;;;;;;19.12;63.93848;937.6097;;;;
2022/06/01 05:20:58;;;;;;;1.6;0.9;;;;;;;18.85;64.01563;937.5705;;;;
2022/06/01 05:23:23;;;;;;;2;0.7;;;;;;;19.1;63.34082;937.6328;;;;
2022/06/01 05:28:34;;;;;;;1.3;0.7;;;;;;;20.23;59.13867;937.6767;;;;
2022/06/01 05:30:59;;;;;;;1.1;0.6;;;;;;;20.19;57.73145;937.6873;;;;
2022/06/01 05:33:28;;;;;;;1.4;1;;;;;;;20.52;58.32422;937.6438;;;;
2022/06/01 05:35:53;;;;;;;1.8;1.6;;;;;;;20.8;59.55371;937.629;;;;
2022/06/01 05:38:26;;;;;;;1.5;0.6;;;;;;;20.57;56.35547;937.6309;;;;
2022/06/01 05:40:59;;;;;;;0.5;0.5;;;;;;;19.4;60.22754;937.6611;;;;
2022/06/01 05:43:24;;;;;;;3.6;1;;;;;;;18.56;64.50879;937.7101;;;;
2022/06/01 05:45:56;;;;;;;2.8;1.1;;;;;;;18.42;66.75488;937.6816;;;;
2022/06/01 05:48:21;;;;;;;1.5;0.7;;;;;;;19.65;62.68555;937.704;;;;
2022/06/01 05:50:49;;;;;;;0.7;0.7;;;;;;;20;61.70996;937.6372;;;;
2022/06/01 05:53:19;;;;;;;0.8;0.8;;;;;;;19.97;59.69824;937.6398;;;;
2022/06/01 05:55:51;;;;;;;1.5;1.1;;;;;;;21.54;54.8877;937.6641;;;;
2022/06/01 05:58:19;;;;;;;1.2;0.7;;;;;;;22.39;51.22656;937.7158;;;;
2022/06/01 06:00:44;;;;;;;0.8;0.6;;;;;;;21.4;54.18066;937.6829;;;;
2022/06/01 06:03:15;;;;;;;1.1;0.7;;;;;;;22.49;52.43555;937.6636;;;;
2022/06/01 06:08:07;;;;;;;1.9;1;;;;;;;24.26;48.12109;937.635;;;;
2022/06/01 06:10:32;;;;;;;0.8;0.7;;;;;;;25.29;47.52441;937.6442;;;;
2022/06/01 06:12:58;;;;;;;1.6;0.7;;;;;;;26.31;42.81543;937.6042;;;;
2022/06/01 06:15:25;;;;;;;0.5;0.5;;;;;;;26.05;43.7373;937.6199;;;;
2022/06/01 06:17:56;;;;;;;0.6;0.6;;;;;;;25.21;44.39844;937.6203;;;;
2022/06/01 06:20:23;;;;;;;1.6;0.6;;;;;;;25.3;45.49316;937.6178;;;;
2022/06/01 06:22:48;;;;;;;0.4;0.4;;;;;;;23.73;46.4873;937.6016;;;;
2022/06/01 06:25:18;;;;;;;0.7;0.6;;;;;;;23.8;49.68457;937.5897;;;;
2022/06/01 06:27:43;;;;;;;0.6;0.6;;;;;;;25.3;45.43457;937.551;;;;
2022/06/01 06:30:18;;;;;;;0.8;0.7;;;;;;;26.13;43.37793;937.5603;;;;
2022/06/01 06:32:39;;;;;;;0.6;0.6;;;;;;;27.25;40.37988;937.5524;;;;
2022/06/01 06:35:11;;;;;;;0.6;0.6;;;;;;;24.75;44.90723;937.4883;;;;
2022/06/01 06:37:43;;;;;;;0.9;0.7;;;;;;;22.25;51.98535;937.5488;;;;
2022/06/01 06:40:17;;;;;;;1.5;0.7;;;;;;;24.4;49.72656;937.4817;;;;
2022/06/01 06:42:49;;;;;;;1.2;0.8;;;;;;;26.66;44.24707;937.5433;;;;
2022/06/01 06:45:19;;;;;;;0.7;0.7;;;;;;;26.65;41.99512;937.5144;;;;
2022/06/01 06:47:44;;;;;;;0.8;0.7;;;;;;;26.71;41.84668;937.4794;;;;
2022/06/01 06:53:57;;;;;;;0.7;0.6;;;;;;;28.47;40.08496;937.4642;;;;
2022/06/01 06:56:22;;;;;;;1.2;0.7;;;;;;;28.31;40.30859;937.4535;;;;
2022/06/01 06:58:50;;;;;;;0.8;0.8;;;;;;;29.47;38.25586;937.3583;;;;
2022/06/01 07:01:15;;;;;;;1;0.8;;;;;;;30.8;35.77441;937.4631;;;;
2022/06/01 07:03:42;;;;;;;0.7;0.7;;;;;;;30.55;34.73926;937.4127;;;;
2022/06/01 07:06:12;;;;;;;2.3;0.7;;;;;;;29.1;35.91309;937.3792;;;;
2022/06/01 07:08:36;;;;;;;1.6;0.9;;;;;;;28.75;37.25391;937.389;;;;
2022/06/01 07:11:04;;;;;;;1;0.8;;;;;;;29.65;35.65918;937.342;;;;
2022/06/01 07:13:29;;;;;;;0.9;0.5;;;;;;;30.27;36.00684;937.3591;;;;
2022/06/01 07:15:54;;;;;;;0.5;0.5;;;;;;;29.07;35.1377;937.2834;;;;
2022/06/01 07:18:20;;;;;;;0.7;0.7;;;;;;;29.16;36.73926;937.3215;;;;
2022/06/01 07:20:45;;;;;;;1.2;0.7;;;;;;;28.61;38.09961;937.28;;;;
2022/06/01 07:23:11;;;;;;;0.8;0.6;;;;;;;29.71;36.30859;937.2305;;;;
2022/06/01 07:25:36;;;;;;;1.2;0.7;;;;;;;30.47;34.73242;937.2109;;;;
2022/06/01 07:28:02;;;;;;;1.4;0.7;;;;;;;30.93;33.85938;937.155;;;;
2022/06/01 07:30:27;;;;;;;0.6;0.6;;;;;;;28.31;37.94336;937.1456;;;;
2022/06/01 07:32:57;;;;;;;0.8;0.5;;;;;;;27.47;38.92871;937.1641;;;;
2022/06/01 07:35:22;;;;;;;0.5;0.5;;;;;;;26.57;39.63184;937.0879;;;;
2022/06/01 07:45:10;;;;;;;0.6;0.5;;;;;;;31.6;32.83203;937.06;;;;
2022/06/01 07:47:40;;;;;;;0.5;0.5;;;;;;;32.28;28.94727;937.0377;;;;
2022/06/01 07:50:05;;;;;;;0.4;0.4;;;;;;;32.11;29.88379;937.0302;;;;
2022/06/01 07:52:31;;;;;;;0.5;0.5;;;;;;;32.19;30.5127;936.9735;;;;
2022/06/01 07:54:56;;;;;;;0.9;0.6;;;;;;;30.22;31.94434;936.9926;;;;
2022/06/01 07:57:28;;;;;;;0.6;0.6;;;;;;;30.74;32.30371;936.9363;;;;
2022/06/01 07:59:56;;;;;;;0.5;0.5;;;;;;;30.78;31.375;936.8807;;;;
2022/06/01 08:02:21;;;;;;;0.4;0.4;;;;;;;31.41;31.26172;936.8528;;;;
2022/06/01 08:04:49;;;;;;;0.9;0.5;;;;;;;30.94;30.4043;936.8691;;;;
2022/06/01 08:07:14;;;;;;;0.9;0.4;;;;;;;31.38;29.2373;936.7526;;;;
2022/06/01 08:09:42;;;;;;;0.4;0.4;;;;;;;31.93;31.62109;936.7562;;;;
2022/06/01 08:14:33;;;;;;;0.7;0.7;;;;;;;31.28;32.62988;936.7262;;;;
2022/06/01 08:17:02;;;;;;;0.5;0.5;;;;;;;31.74;30.55371;936.7219;;;;
2022/06/01 08:19:27;;;;;;;0.5;0.5;;;;;;;32.26;31.57227;936.6845;;;;
2022/06/01 08:21:54;;;;;;;0.5;0.5;;;;;;;29.79;35.82617;936.6789;;;;
2022/06/01 08:24:19;;;;;;;0.6;0.6;;;;;;;28.47;36.90918;936.6351;;;;
2022/06/01 08:26:46;;;;;;;0.6;0.6;;;;;;;28.13;36.79883;936.6323;;;;
2022/06/01 08:29:11;;;;;;;0.6;0.6;;;;;;;28.41;37.46387;936.5623;;;;
2022/06/01 08:31:36;;;;;;;0.5;0.5;;;;;;;27.6;36.58887;936.6111;;;;
2022/06/01 08:34:02;;;;;;;0.7;0.7;;;;;;;28.48;38.31445;936.6409;;;;
2022/06/01 08:36:29;;;;;;;0.8;0.7;;;;;;;28.52;37.86523;936.6368;;;;
2022/06/01 08:38:54;;;;;;;1.2;0.7;;;;;;;28.17;39.15527;936.6516;;;;
2022/06/01 08:41:21;;;;;;;1.3;0.8;;;;;;;27.81;40.75;936.6605;;;;
2022/06/01 08:43:46;;;;;;;0.6;0.6;;;;;;;27.72;41.37207;936.6711;;;;
2022/06/01 08:46:14;;;;;;;1.7;0.7;;;;;;;26.85;41.10156;936.6286;;;;
2022/06/01 08:48:41;;;;;;;1.4;0.7;;;;;;;28.56;37.25;936.6766;;;;
2022/06/01 08:51:06;;;;;;;0.7;0.7;;;;;;;29.05;37.29102;936.6668;;;;
2022/06/01 08:53:35;;;;;;;1.6;0.6;;;;;;;28.43;34.00488;936.6016;;;;
2022/06/01 08:56:01;;;;;;;1;0.7;;;;;;;29.41;36.06934;936.6394;;;;
2022/06/01 08:58:25;;;;;;;1.9;0.8;;;;;;;30.03;36.78613;936.6052;;;;
2022/06/01 09:00:51;;;;;;;2.4;0.7;;;;;;;30.03;37.25195;936.573;;;;
2022/06/01 09:03:49;;;;;;;0.7;0.7;;;;;;;29.22;35.08984;936.4992;;;;
2022/06/01 09:06:14;;;;;;;0.6;0.6;;;;;;;27.88;38.69043;936.4368;;;;
2022/06/01 09:08:39;;;;;;;1.2;0.8;;;;;;;28.73;34.13477;936.421;;;;
2022/06/01 09:11:08;;;;;;;2.5;0.9;;;;;;;29.07;35.68555;936.3436;;;;
2022/06/01 09:13:33;;;;;;;0.9;0.8;;;;;;;28.7;36.2627;936.375;;;;
2022/06/01 09:15:58;;;;;;;0.7;0.7;;;;;;;28.58;34.44434;936.4071;;;;
2022/06/01 09:18:25;;;;;;;0.7;0.7;;;;;;;28.01;34.62695;936.4019;;;;
2022/06/01 09:23:15;;;;;;;1.4;0.6;;;;;;;27.25;38.63574;936.3547;;;;
2022/06/01 09:25:42;;;;;;;0.6;0.5;;;;;;;28.85;37.16699;936.3669;;;;
2022/06/01 09:28:07;;;;;;;0.8;0.7;;;;;;;29.39;35.94824;936.3851;;;;
2022/06/01 09:30:35;;;;;;;0.8;0.6;;;;;;;29.18;34.82422;936.392;;;;
2022/06/01 09:33:00;;;;;;;1.2;0.8;;;;;;;28.75;36.39746;936.356;;;;
2022/06/01 09:35:25;;;;;;;0.8;0.6;;;;;;;27.86;35.36328;936.3918;;;;
2022/06/01 09:37:50;;;;;;;1.1;0.6;;;;;;;25.79;39.1377;936.3976;;;;
2022/06/01 09:40:20;;;;;;;0.6;0.6;;;;;;;26.19;42.83984;936.3533;;;;
2022/06/01 09:42:50;;;;;;;0.8;0.7;;;;;;;26.11;38.44336;936.3772;;;;
2022/06/01 09:45:23;;;;;;;1.1;0.6;;;;;;;26.94;39.40332;936.322;;;;
2022/06/01 09:47:55;;;;;;;1.1;0.7;;;;;;;27.07;39.72363;936.3566;;;;
2022/06/01 09:50:22;;;;;;;0.8;0.6;;;;;;;26.52;39.91211;936.358;;;;
2022/06/01 09:52:54;;;;;;;1.6;0.9;;;;;;;26.24;42.57324;936.3008;;;;
2022/06/01 09:55:19;;;;;;;1;0.9;;;;;;;25.93;41.7041;936.3111;;;;
2022/06/01 09:57:44;;;;;;;1.1;0.8;;;;;;;26.96;41.31348;936.2603;;;;
2022/06/01 10:07:36;;;;;;;1.3;0.9;;;;;;;24.28;46.83887;936.1528;;;;
2022/06/01 10:10:01;;;;;;;1.4;1.1;;;;;;;24.48;47.15527;936.1788;;;;
2022/06/01 10:12:30;;;;;;;1.4;1.2;;;;;;;24.57;44.83008;936.1509;;;;
2022/06/01 10:15:16;;;;;;;1.2;0.9;;;;;;;24.91;46.32715;936.1839;;;;
2022/06/01 10:17:46;;;;;;;1.7;1;;;;;;;25.28;44.41699;936.1848;;;;
2022/06/01 10:20:11;;;;;;;1.1;1;;;;;;;24.88;45.00293;936.1135;;;;
2022/06/01 10:22:39;;;;;;;1.5;1;;;;;;;24.55;45.96094;936.0744;;;;
2022/06/01 10:25:04;;;;;;;1.1;1;;;;;;;25.09;44.91895;936.1354;;;;
2022/06/01 10:27:29;;;;;;;1.3;1.1;;;;;;;24.5;42.9248;936.0558;;;;
2022/06/01 10:29:54;;;;;;;1.8;1.1;;;;;;;24.61;46.4834;936.0328;;;;
2022/06/01 10:32:23;;;;;;;2;1;;;;;;;24.74;48.80957;936.0828;;;;
2022/06/01 10:34:47;;;;;;;3.3;0.9;;;;;;;25.43;47.89258;936.1147;;;;
2022/06/01 10:37:17;;;;;;;4.6;1.3;;;;;;;26.39;43.79395;936.0242;;;;
2022/06/01 10:39:41;;;;;;;1.3;1.2;;;;;;;26.65;40.37305;936.0609;;;;
2022/06/01 10:42:07;;;;;;;1.2;0.8;;;;;;;26.4;42.94238;936.1131;;;;
2022/06/01 10:44:32;;;;;;;2.8;1.1;;;;;;;26.61;41.00879;936.0963;;;;
2022/06/01 10:46:57;;;;;;;1.4;1.2;;;;;;;26.4;40.93066;936.1325;;;;
2022/06/01 10:49:22;;;;;;;2.8;1.1;;;;;;;25.61;44.92285;936.1234;;;;
2022/06/01 10:51:51;;;;;;;2.3;1.1;;;;;;;24.89;46.80859;936.0993;;;;
2022/06/01 10:54:16;;;;;;;2.4;1.8;;;;;;;24.54;47.70313;935.9853;;;;
2022/06/01 10:56:41;;;;;;;2;1.1;;;;;;;24.15;50.07617;936.0712;;;;
2022/06/01 10:59:28;;;;;;;2;1.2;;;;;;;24.06;47.2168;936.056;;;;
2022/06/01 11:01:58;;;;;;;3;1.3;;;;;;;23.82;47.47363;936.0273;;;;
2022/06/01 11:04:24;;;;;;;1.4;1.3;;;;;;;23.57;52.96289;936.0756;;;;
2022/06/01 11:06:49;;;;;;;1.8;1.2;;;;;;;24.26;48.06152;936.0683;;;;
2022/06/01 11:09:14;;;;;;;1.3;1.2;;;;;;;24.6;46.04785;936.0281;;;;
2022/06/01 11:11:39;;;;;;;2.3;1.3;;;;;;;24.65;46.54785;936.0748;;;;
2022/06/01 11:14:09;;;;;;;1.6;1.1;;;;;;;24.72;48.0293;935.9958;;;;
2022/06/01 11:16:33;;;;;;;1.7;1.5;;;;;;;24.91;45.1582;936.0203;;;;
2022/06/01 11:18:58;;;;;;;1.4;1;;;;;;;24.71;48.06348;935.9246;;;;
2022/06/01 11:21:23;;;;;;;1.1;1;;;;;;;24.47;47.95508;935.8741;;;;
2022/06/01 11:23:49;;;;;;;1.4;1.3;;;;;;;24.6;48.09863;935.8979;;;;
2022/06/01 11:26:13;;;;;;;1.3;1.2;;;;;;;24.49;46.46094;935.899;;;;
2022/06/01 11:28:38;;;;;;;2.6;1.5;;;;;;;24.67;47.35254;935.9136;;;;
2022/06/01 11:31:03;;;;;;;2.2;1.4;;;;;;;23.98;49.19727;935.8489;;;;
2022/06/01 11:33:29;;;;;;;1;1;;;;;;;24.06;50.03027;935.9217;;;;
2022/06/01 11:35:55;;;;;;;2.5;1.6;;;;;;;23.97;50.15137;935.9767;;;;
2022/06/01 11:38:19;;;;;;;1.3;1.2;;;;;;;24.25;47.10645;935.8285;;;;
2022/06/01 11:40:44;;;;;;;1.3;1.2;;;;;;;24.07;48.90234;935.9;;;;
2022/06/01 11:43:09;;;;;;;1.9;1.3;;;;;;;24.71;46.37793;935.9601;;;;
2022/06/01 11:45:34;;;;;;;1.5;1.1;;;;;;;25.22;43.75;936.0119;;;;
2022/06/01 11:47:59;;;;;;;2.5;1.3;;;;;;;24.73;44.62207;935.9953;;;;
2022/06/01 11:50:28;;;;;;;2;1.3;;;;;;;24.54;44.33203;935.9169;;;;
2022/06/01 11:52:54;;;;;;;3.9;1.3;;;;;;;24.72;46.24805;936.0209;;;;
2022/06/01 11:55:22;;;;;;;1.5;1.2;;;;;;;25.5;42.93848;936.0477;;;;
2022/06/01 11:57:47;;;;;;;1.9;1.4;;;;;;;26.01;41.79297;935.9629;;;;
2022/06/01 12:00:12;;;;;;;3.5;1.6;;;;;;;25.29;44.67773;935.8354;;;;
2022/06/01 12:02:44;;;;;;;3.5;1.4;;;;;;;24.64;49.11719;935.8541;;;;
2022/06/01 12:05:04;;;;;;;3.6;1.6;;;;;;;24.42;47.90137;935.8544;;;;
2022/06/01 12:07:29;;;;;;;4.4;1.6;;;;;;;24.67;45.6416;935.8217;;;;
2022/06/01 12:09:55;;;;;;;2.2;1.3;;;;;;;24.36;45.7168;935.7877;;;;
2022/06/01 12:12:20;;;;;;;1.5;1.4;;;;;;;24.44;47.55078;935.8286;;;;
2022/06/01 12:14:46;;;;;;;23.5;2.9;;;;;;;24.27;49.37012;935.7764;;;;
2022/06/01 12:17:10;;;;;;;4.3;1.6;;;;;;;24.58;47.12988;935.6944;;;;
2022/06/01 12:19:37;;;;;;;17;2.7;;;;;;;24.59;44.36133;935.7795;;;;
2022/06/01 12:28:30;;;;;;;2.3;1.3;;;;;;;24.76;44.63672;935.7625;;;;
2022/06/01 12:29:20;;;;;;;1.7;1.5;;;;;;;23.75;46.5127;935.7402;;;;
2022/06/01 12:31:47;;;;;;;6.5;1.7;;;;;;;23.69;46.11816;935.7982;;;;
2022/06/01 12:34:12;;;;;;;1.7;1.5;;;;;;;23.93;46.62598;935.7225;;;;
2022/06/01 12:36:37;;;;;;;1.3;1.2;;;;;;;24.15;45.88379;935.6655;;;;
2022/06/01 12:39:02;;;;;;;1.6;1.2;;;;;;;23.92;47.17871;935.7286;;;;
2022/06/01 12:41:27;;;;;;;1.6;1.5;;;;;;;24.13;45.39844;935.7523;;;;
2022/06/01 12:43:52;;;;;;;1.3;1.2;;;;;;;24.17;45.88477;935.8588;;;;
2022/06/01 12:46:19;;;;;;;1.6;1.4;;;;;;;24.2;43.67383;935.882;;;;
2022/06/01 12:48:44;;;;;;;2.9;1.7;;;;;;;23.83;45.7793;935.8574;;;;
2022/06/01 12:51:13;;;;;;;1.5;1.4;;;;;;;23.29;49.2041;935.7558;;;;
2022/06/01 12:53:37;;;;;;;2.9;1.5;;;;;;;23;48.18457;935.7808;;;;
2022/06/01 12:56:03;;;;;;;2.2;1.6;;;;;;;23.38;45.7334;935.7438;;;;
2022/06/01 12:58:28;;;;;;;2.9;1.7;;;;;;;23.79;47.88184;935.8449;;;;
2022/06/01 13:00:54;;;;;;;2.9;1.8;;;;;;;23.61;45.98047;935.8416;;;;
2022/06/01 13:03:19;;;;;;;5.4;1.8;;;;;;;23.06;48.22656;935.7615;;;;
2022/06/01 13:05:46;;;;;;;1.6;1.3;;;;;;;23.23;49.12598;935.783;;;;
2022/06/01 13:08:11;;;;;;;3.4;1.7;;;;;;;23.1;47.86621;935.7225;;;;
2022/06/01 13:10:42;;;;;;;3.3;1.6;;;;;;;23.29;48.80469;935.7095;;;;
2022/06/01 13:13:10;;;;;;;18.1;2.6;;;;;;;23.89;46.48145;935.6519;;;;
2022/06/01 13:15:38;;;;;;;3.4;1.5;;;;;;;23.89;44.2793;935.5422;;;;
2022/06/01 13:18:05;;;;;;;1.6;1.5;;;;;;;24.09;44.91113;935.4974;;;;
2022/06/01 13:20:30;;;;;;;2.1;1.6;;;;;;;23.15;48.66992;935.6578;;;;
2022/06/01 13:22:57;;;;;;;3.7;1.5;;;;;;;23.48;47.14258;935.6771;;;;
2022/06/01 13:25:23;;;;;;;5.9;2.1;;;;;;;23.57;45.81152;935.6947;;;;
2022/06/01 13:27:48;;;;;;;1.6;1.5;;;;;;;23.39;46.16992;935.7343;;;;
2022/06/01 13:30:17;;;;;;;1.8;1.6;;;;;;;23.52;47.24219;935.6897;;;;
2022/06/01 13:32:47;;;;;;;3.1;1.4;;;;;;;23.52;47.74707;935.686;;;;
2022/06/01 13:35:12;;;;;;;1.9;1.4;;;;;;;23.74;44.9707;935.644;;;;
2022/06/01 13:37:39;;;;;;;25;3;;;;;;;23.95;45.2168;935.6816;;;;
2022/06/01 13:40:10;;;;;;;5;1.7;;;;;;;24;46.1748;935.686;;;;
2022/06/01 13:42:35;;;;;;;3.9;1.5;;;;;;;23.4;47.13477;935.712;;;;
2022/06/01 13:45:01;;;;;;;1.7;1.5;;;;;;;22.96;47.27637;935.5983;;;;
2022/06/01 13:47:26;;;;;;;1.6;1.5;;;;;;;22.66;49.87305;935.7816;;;;
2022/06/01 13:49:51;;;;;;;4;1.9;;;;;;;22.47;49.37109;935.8464;;;;
2022/06/01 13:52:19;;;;;;;1.7;1.6;;;;;;;22.54;48.47559;935.7981;;;;
2022/06/01 13:54:44;;;;;;;7.7;2;;;;;;;22.57;49.27637;935.7564;;;;
2022/06/01 13:57:10;;;;;;;1.6;1.4;;;;;;;22.56;49.16992;935.7761;;;;
2022/06/01 13:59:35;;;;;;;2.3;1.5;;;;;;;22.57;49.54688;935.866;;;;
2022/06/01 14:02:00;;;;;;;3.4;2;;;;;;;22.59;49.81934;935.9811;;;;
2022/06/01 14:04:29;;;;;;;2.3;1.9;;;;;;;22.31;50.50391;935.9725;;;;
2022/06/01 14:06:56;;;;;;;2.2;1.7;;;;;;;22.2;52.0498;936.0154;;;;
2022/06/01 14:09:21;;;;;;;3.7;1.7;;;;;;;21.98;54.17969;936.0284;;;;
2022/06/01 14:11:46;;;;;;;3.7;1.8;;;;;;;21.9;54.67383;936.0471;;;;
2022/06/01 14:14:16;;;;;;;2.3;2;;;;;;;21.28;56.48145;936.1318;;;;
2022/06/01 14:16:41;;;;;;;2.2;1.9;;;;;;;20.98;59.72949;936.1624;;;;
2022/06/01 14:19:06;;;;;;;2.2;2;;;;;;;21.15;59.0625;936.2136;;;;
2022/06/01 14:21:34;;;;;;;2.6;2.3;;;;;;;20.98;61.40234;936.3703;;;;
2022/06/01 14:24:00;;;;;;;3.2;2.1;;;;;;;20.77;63.71094;936.4532;;;;
2022/06/01 14:28:52;;;;;;;2.2;1.7;;;;;;;20.8;67.18652;936.6036;;;;
2022/06/01 14:31:17;;;;;;;2.6;1.9;;;;;;;20.64;68.13281;936.649;;;;
2022/06/01 14:33:44;;;;;;;5.4;2.2;;;;;;;20.32;71.24512;936.7012;;;;
2022/06/01 14:36:08;;;;;;;3.2;2.3;;;;;;;20.23;71.31445;936.699;;;;
2022/06/01 14:38:36;;;;;;;2.7;2.4;;;;;;;20.07;72.67676;936.8636;;;;
2022/06/01 14:41:01;;;;;;;3.2;1.9;;;;;;;19.67;72.59961;936.9448;;;;
2022/06/01 14:43:26;;;;;;;4.1;2.3;;;;;;;19.31;74.47363;937.057;;;;
2022/06/01 14:45:51;;;;;;;2.5;2;;;;;;;19.19;74.32617;937.1169;;;;
2022/06/01 14:48:18;;;;;;;3.1;1.6;;;;;;;19.35;74.06055;937.3014;;;;
2022/06/01 14:50:43;;;;;;;3.6;2;;;;;;;18.93;76.17871;937.3574;;;;
2022/06/01 14:53:08;;;;;;;3.2;2.3;;;;;;;18.49;76.43848;937.4247;;;;
2022/06/01 14:55:33;;;;;;;3.5;2.4;;;;;;;18.04;76.72168;937.562;;;;
2022/06/01 14:58:00;;;;;;;2.7;2.2;;;;;;;17.59;79.16113;937.5864;;;;
2022/06/01 15:00:25;;;;;;;3.8;2.2;;;;;;;17.33;80.14746;937.7228;;;;
2022/06/01 15:02:54;;;;;;;3;2.4;;;;;;;17.19;82.11523;937.7877;;;;
2022/06/01 15:05:22;;;;;;;3.8;2.1;;;;;;;17.35;83.22461;937.7707;;;;
2022/06/01 15:07:47;;;;;;;2.1;1.8;;;;;;;17.5;82.2207;937.7281;;;;
2022/06/01 15:10:16;;;;;;;2.6;2.2;;;;;;;17.67;81.79883;937.6635;;;;
2022/06/01 15:12:46;;;;;;;2.5;2;;;;;;;17.66;83.66699;937.6063;;;;
2022/06/01 15:15:17;;;;;;;4.3;2.6;;;;;;;17.6;84.76758;937.6588;;;;
2022/06/01 15:17:42;;;;;;;4;3;;;;;;;17.72;84.90625;937.6716;;;;
2022/06/01 15:20:11;;;;;;;2.7;2.3;;;;;;;18;82.9043;937.6197;;;;
2022/06/01 15:22:34;;;;;;;2.5;2.3;;;;;;;18.01;83.54688;937.6339;;;;
2022/06/01 15:25:00;;;;;;;2.7;2.4;;;;;;;17.97;81.18164;937.6895;;;;
2022/06/01 15:27:25;;;;;;;2.5;2.3;;;;;;;17.81;83.34668;937.5779;;;;
2022/06/01 15:39:34;;;;;;;4.1;3.1;;;;;;;18.16;82.57422;937.3756;;;;
2022/06/01 15:41:59;;;;;;;2.4;2;;;;;;;18.17;79.95215;937.4835;;;;
2022/06/01 15:44:25;;;;;;;3.5;1.8;;;;;;;18.23;81.4375;937.4461;;;;
2022/06/01 15:46:50;;;;;;;2.3;2.1;;;;;;;18.26;82.59375;937.4916;;;;
2022/06/01 15:49:16;;;;;;;3.2;2;;;;;;;18.39;78.80566;937.5161;;;;
2022/06/01 15:51:41;;;;;;;2.3;1.9;;;;;;;18.52;78.79395;937.4667;;;;
2022/06/01 15:54:06;;;;;;;2.4;2.2;;;;;;;18.62;77.74316;937.5034;;;;
2022/06/01 15:56:36;;;;;;;2.7;2.1;;;;;;;18.5;78.39648;937.5477;;;;
2022/06/01 15:59:00;;;;;;;3.7;2.1;;;;;;;18.48;81.29883;937.57;;;;
2022/06/01 16:01:29;;;;;;;3.2;2;;;;;;;18.52;81.49316;937.5787;;;;
2022/06/01 16:03:54;;;;;;;2.4;2.2;;;;;;;18.53;81.27344;937.6013;;;;
2022/06/01 16:06:20;;;;;;;2.6;2.4;;;;;;;18.54;81.82227;937.6525;;;;
2022/06/01 16:08:45;;;;;;;2.3;2;;;;;;;18.35;79.38086;937.6588;;;;
2022/06/01 16:11:15;;;;;;;2.1;1.9;;;;;;;18.34;79.98145;937.6277;;;;
2022/06/01 16:13:43;;;;;;;2.3;2.1;;;;;;;18.23;82.35547;937.6872;;;;
2022/06/01 16:17:08;;;;;;;3.9;2.5;;;;;;;18.3;83.35742;937.7487;;;;
2022/06/01 16:19:34;;;;;;;2.5;2.3;;;;;;;18.05;84.27539;937.7494;;;;
2022/06/01 16:21:59;;;;;;;3.1;2.7;;;;;;;18.02;83.69922;937.7097;;;;
2022/06/01 16:24:25;;;;;;;2.9;2.6;;;;;;;17.97;83.51465;937.7275;;;;
2022/06/01 16:27:28;;;;;;;3.4;2.6;;;;;;;17.81;83.20703;937.6916;;;;
2022/06/01 16:29:52;;;;;;;4.2;3;;;;;;;17.64;84.82227;937.8425;;;;
2022/06/01 16:32:17;;;;;;;3.2;2.4;;;;;;;17.41;86.14746;937.8694;;;;
2022/06/01 16:35:13;;;;;;;4.4;2.3;;;;;;;17.46;86.74805;938.0154;;;;
2022/06/01 16:37:39;;;;;;;2.8;2.1;;;;;;;17.29;84.61523;938.1581;;;;
2022/06/01 16:40:03;;;;;;;3.3;2.6;;;;;;;17.17;85.8584;938.2274;;;;
2022/06/01 16:46:06;;;;;;;3;2.4;;;;;;;16.72;88.94141;938.4169;;;;